Terminal Aerodrome Forecast
Issued by NWS Blacksburg, VA

Current Version | Previous Version | Text Only | Print | Product List | Glossary Off
Versions: 1 2 3 4 5 6 7 8 9 10 11 12 13 14

000
FTUS41 KRNK 190520
TAFBLF
TAF
KBLF 190520Z 1906/2006 24003KT 3SM BR SKC
      TEMPO 1906/1909 3/4SM BR
     FM191300 27004KT P6SM FEW035
     FM191600 27004KT P6SM FEW250=

USA.gov is the U.S. government's official web portal to all federal, state and local government web resources and services.